Time;durP1;ratioP1;P1;durP2;ratioP2;P2;SDS_P1;SDS_P2;PMS_P1;PMS_P2;Temp;Humidity;BMP_temperature;BMP_pressure;BME280_temperature;BME280_humidity;BME280_pressure;Samples;Min_cycle;Max_cycle;Signal;HPM_P1;HPM_P2
2023/07/15 00:01:18;;;;;;;8.10;4.47;;;19.00;99.90;;;;;;4975510;28;20054;-73
2023/07/15 00:03:45;;;;;;;8.07;4.50;;;19.10;99.90;;;;;;4973913;28;20046;-72
2023/07/15 00:06:11;;;;;;;7.65;4.50;;;19.10;99.90;;;;;;4975382;28;20487;-73
2023/07/15 00:08:37;;;;;;;7.82;4.50;;;19.00;99.90;;;;;;4975079;28;20039;-72
2023/07/15 00:11:03;;;;;;;8.45;4.72;;;18.90;99.90;;;;;;4975231;28;20038;-73
2023/07/15 00:13:29;;;;;;;7.78;4.05;;;18.90;99.90;;;;;;4973177;28;20480;-72
2023/07/15 00:15:57;;;;;;;9.32;4.78;;;18.90;99.90;;;;;;4975431;28;20070;-72
2023/07/15 00:18:23;;;;;;;8.70;4.82;;;18.80;99.90;;;;;;4974117;28;20051;-73
2023/07/15 00:20:50;;;;;;;7.38;4.60;;;18.80;99.90;;;;;;4975277;28;20041;-73
2023/07/15 00:23:22;;;;;;;7.88;4.10;;;18.80;99.90;;;;;;4974400;28;20078;-72
2023/07/15 00:25:50;;;;;;;8.00;4.70;;;18.70;99.90;;;;;;4974663;28;20046;-72
2023/07/15 00:28:17;;;;;;;8.05;4.30;;;18.80;99.90;;;;;;4978977;28;20055;-71
2023/07/15 00:30:44;;;;;;;8.02;4.63;;;18.80;99.90;;;;;;4981190;28;20093;-72
2023/07/15 00:33:15;;;;;;;7.40;4.20;;;18.80;99.90;;;;;;4976776;28;20034;-72
2023/07/15 00:35:42;;;;;;;8.40;4.40;;;18.90;99.90;;;;;;4982566;28;20093;-72
2023/07/15 00:38:08;;;;;;;7.95;4.22;;;18.90;99.90;;;;;;4987694;28;20133;-71
2023/07/15 00:40:42;;;;;;;9.18;4.25;;;18.80;99.90;;;;;;4983992;28;20035;-72
2023/07/15 00:43:45;;;;;;;7.35;4.15;;;18.80;99.90;;;;;;4988310;28;20039;-72
2023/07/15 00:46:33;;;;;;;7.60;4.00;;;18.80;99.90;;;;;;4983490;28;20038;-71
2023/07/15 00:49:14;;;;;;;7.68;3.90;;;18.80;99.90;;;;;;4984132;28;20445;-72
2023/07/15 00:51:47;;;;;;;7.57;4.13;;;18.80;99.90;;;;;;4982506;28;20050;-72
2023/07/15 00:54:14;;;;;;;8.90;4.07;;;18.80;99.90;;;;;;4985411;28;20035;-71
2023/07/15 00:56:41;;;;;;;8.20;3.90;;;18.80;99.90;;;;;;4976688;28;20120;-72
2023/07/15 00:59:12;;;;;;;8.40;4.28;;;18.80;99.90;;;;;;4980567;28;20030;-72
2023/07/15 01:01:38;;;;;;;7.63;3.97;;;18.80;99.90;;;;;;4977594;28;20043;-72
2023/07/15 01:04:05;;;;;;;7.80;3.70;;;18.80;99.90;;;;;;4978343;28;20105;-74
2023/07/15 01:06:33;;;;;;;7.00;3.70;;;18.80;99.90;;;;;;4974981;28;20047;-74
2023/07/15 01:08:59;;;;;;;6.38;3.67;;;18.80;99.90;;;;;;4975089;28;20116;-73
2023/07/15 01:11:27;;;;;;;7.53;3.72;;;18.80;99.90;;;;;;4975189;28;20391;-74
2023/07/15 01:13:53;;;;;;;8.23;3.70;;;18.90;99.90;;;;;;4974434;28;20123;-73
2023/07/15 01:16:18;;;;;;;9.18;3.55;;;18.90;99.90;;;;;;4974276;28;20170;-74
2023/07/15 01:18:44;;;;;;;8.70;3.70;;;19.00;99.90;;;;;;4972765;28;20046;-72
2023/07/15 01:21:13;;;;;;;8.63;3.45;;;19.00;99.90;;;;;;4972770;28;20132;-72
2023/07/15 01:23:38;;;;;;;7.43;3.60;;;19.10;99.90;;;;;;4974755;28;20132;-73
2023/07/15 01:26:04;;;;;;;7.45;3.20;;;19.10;99.90;;;;;;4978074;28;20111;-73
2023/07/15 01:28:31;;;;;;;7.88;3.53;;;19.20;99.90;;;;;;4978123;28;20038;-73
2023/07/15 01:30:58;;;;;;;7.32;3.35;;;19.20;99.90;;;;;;4977965;28;20065;-73
2023/07/15 01:33:25;;;;;;;7.88;3.60;;;19.30;99.90;;;;;;4977733;28;20047;-72
2023/07/15 01:35:51;;;;;;;6.75;3.05;;;19.40;99.90;;;;;;4976562;28;20078;-73
2023/07/15 01:38:16;;;;;;;6.63;3.00;;;19.50;99.90;;;;;;4976809;28;20452;-73
2023/07/15 01:40:43;;;;;;;7.68;3.03;;;19.50;99.90;;;;;;4977521;28;20113;-74
2023/07/15 01:43:09;;;;;;;5.93;2.90;;;19.60;99.90;;;;;;4977830;28;20043;-74
2023/07/15 01:45:39;;;;;;;7.97;2.90;;;19.60;99.90;;;;;;4976240;28;20051;-74
2023/07/15 01:48:09;;;;;;;5.97;3.13;;;19.70;99.90;;;;;;4976325;28;20054;-74
2023/07/15 01:50:36;;;;;;;6.90;3.10;;;19.70;99.90;;;;;;4977318;28;20078;-74
2023/07/15 01:53:02;;;;;;;6.25;3.00;;;19.70;99.90;;;;;;4977257;28;20114;-74
2023/07/15 01:55:28;;;;;;;6.65;2.78;;;19.70;99.90;;;;;;4977657;28;20043;-74
2023/07/15 01:57:54;;;;;;;6.32;2.90;;;19.80;99.90;;;;;;4976165;28;20502;-74
2023/07/15 02:00:20;;;;;;;7.28;3.05;;;19.80;99.90;;;;;;4977629;28;20074;-74
2023/07/15 02:02:47;;;;;;;6.60;3.03;;;19.70;99.90;;;;;;4977164;28;20047;-74
2023/07/15 02:05:13;;;;;;;7.35;3.00;;;19.70;99.90;;;;;;4977124;28;20043;-74
2023/07/15 02:07:38;;;;;;;6.18;2.97;;;19.70;99.90;;;;;;4977351;28;20173;-74
2023/07/15 02:10:05;;;;;;;7.40;3.00;;;19.80;99.90;;;;;;4976128;28;20090;-74
2023/07/15 02:12:30;;;;;;;7.25;2.85;;;19.80;99.90;;;;;;4976990;28;20043;-74
2023/07/15 02:14:56;;;;;;;6.80;2.58;;;19.80;99.90;;;;;;4975659;28;20073;-74
2023/07/15 02:17:23;;;;;;;5.60;2.80;;;19.80;99.90;;;;;;4976071;28;20039;-74
2023/07/15 02:19:52;;;;;;;6.72;3.30;;;19.80;99.90;;;;;;4975764;28;20043;-74
2023/07/15 02:22:18;;;;;;;6.75;2.85;;;19.70;99.90;;;;;;4977070;28;20502;-74
2023/07/15 02:24:44;;;;;;;5.38;2.85;;;19.70;99.90;;;;;;4977064;28;20038;-74
2023/07/15 02:27:11;;;;;;;7.65;2.88;;;19.70;99.90;;;;;;4976992;28;20476;-73
2023/07/15 02:29:36;;;;;;;7.32;3.00;;;19.60;99.90;;;;;;4976871;28;20046;-73
2023/07/15 02:32:04;;;;;;;7.13;3.00;;;19.60;99.90;;;;;;4975525;28;20043;-74
2023/07/15 02:34:29;;;;;;;8.13;3.30;;;19.70;99.90;;;;;;4959232;28;20129;-74
2023/07/15 02:36:55;;;;;;;8.20;2.85;;;19.60;99.90;;;;;;4974324;28;20563;-74
2023/07/15 02:39:21;;;;;;;6.22;2.80;;;19.60;99.90;;;;;;4975314;28;20480;-74
2023/07/15 02:41:46;;;;;;;5.40;2.60;;;19.70;99.90;;;;;;4976665;28;20078;-73
2023/07/15 02:44:12;;;;;;;7.25;3.00;;;19.60;99.90;;;;;;4976775;28;20513;-73
2023/07/15 02:46:38;;;;;;;8.20;3.13;;;19.60;99.90;;;;;;4976711;28;20081;-74
2023/07/15 02:49:04;;;;;;;7.18;2.92;;;19.60;99.90;;;;;;4975115;28;20042;-73
2023/07/15 02:51:30;;;;;;;7.45;2.83;;;19.60;99.90;;;;;;4976515;28;20557;-73
2023/07/15 02:53:55;;;;;;;7.28;2.90;;;19.60;99.90;;;;;;4976291;28;20042;-73
2023/07/15 02:56:21;;;;;;;7.63;3.22;;;19.60;99.90;;;;;;4976485;28;20510;-74
2023/07/15 02:58:47;;;;;;;7.00;3.08;;;19.60;99.90;;;;;;4976113;28;20045;-74
2023/07/15 03:01:12;;;;;;;6.78;3.00;;;19.60;99.90;;;;;;4975327;28;20046;-73
2023/07/15 03:03:38;;;;;;;6.68;2.70;;;19.60;99.90;;;;;;4975101;28;20509;-73
2023/07/15 03:06:04;;;;;;;6.70;3.00;;;19.60;99.90;;;;;;4976361;28;20125;-74
2023/07/15 03:08:30;;;;;;;7.05;3.20;;;19.50;99.90;;;;;;4976050;28;20034;-74
2023/07/15 03:10:56;;;;;;;6.60;3.10;;;19.50;99.90;;;;;;4975055;28;20126;-73
2023/07/15 03:13:25;;;;;;;5.50;3.00;;;19.40;99.90;;;;;;4976055;28;20050;-72
2023/07/15 03:15:52;;;;;;;7.10;3.00;;;19.30;99.90;;;;;;4975001;28;20680;-73
2023/07/15 03:18:21;;;;;;;8.65;3.03;;;19.30;99.90;;;;;;4974613;28;20051;-73
2023/07/15 03:20:47;;;;;;;7.10;2.97;;;19.20;99.90;;;;;;4976121;28;20070;-73
2023/07/15 03:23:13;;;;;;;6.07;2.80;;;19.20;99.90;;;;;;4975711;28;20034;-73
2023/07/15 03:25:38;;;;;;;6.32;2.88;;;19.20;99.90;;;;;;4975924;28;20081;-73
2023/07/15 03:28:04;;;;;;;8.10;2.97;;;19.20;99.90;;;;;;4975776;28;20081;-73
2023/07/15 03:30:30;;;;;;;6.65;2.72;;;19.10;99.90;;;;;;4974477;28;20043;-73
2023/07/15 03:32:56;;;;;;;6.32;3.00;;;19.10;99.90;;;;;;4974432;28;20038;-73
2023/07/15 03:35:22;;;;;;;6.82;2.70;;;19.10;99.90;;;;;;4975729;28;20114;-73
2023/07/15 03:37:48;;;;;;;7.53;3.00;;;19.10;99.90;;;;;;4975643;28;20035;-73
2023/07/15 03:40:14;;;;;;;7.00;2.88;;;19.10;99.90;;;;;;4975362;28;20038;-73
2023/07/15 03:42:41;;;;;;;7.93;2.85;;;19.10;99.90;;;;;;4975623;28;20046;-74
2023/07/15 03:45:08;;;;;;;6.65;2.70;;;19.10;99.90;;;;;;4975300;28;20050;-74
2023/07/15 03:47:34;;;;;;;7.43;2.70;;;19.10;99.90;;;;;;4974102;28;20082;-74
2023/07/15 03:50:02;;;;;;;6.50;2.90;;;19.10;99.90;;;;;;4975390;28;20043;-73
2023/07/15 03:52:27;;;;;;;6.85;2.70;;;19.00;99.90;;;;;;4975445;28;20058;-73
2023/07/15 03:54:53;;;;;;;5.43;2.50;;;19.00;99.90;;;;;;4975324;28;20042;-73
2023/07/15 03:57:19;;;;;;;6.32;2.60;;;19.00;99.90;;;;;;4975115;28;20113;-74
2023/07/15 03:59:45;;;;;;;6.68;2.78;;;18.90;99.90;;;;;;4975182;28;20041;-73
2023/07/15 04:02:11;;;;;;;5.90;2.65;;;18.90;99.90;;;;;;4958002;28;20034;-73
2023/07/15 04:04:36;;;;;;;6.10;2.70;;;18.80;99.90;;;;;;4974848;28;20038;-74
2023/07/15 04:07:02;;;;;;;6.68;2.55;;;18.80;99.90;;;;;;4975230;28;20042;-74
2023/07/15 04:09:28;;;;;;;7.32;2.78;;;18.80;99.90;;;;;;4975177;28;20074;-75
2023/07/15 04:11:55;;;;;;;6.15;2.50;;;18.80;99.90;;;;;;4973591;28;20395;-75
2023/07/15 04:14:21;;;;;;;5.43;2.50;;;18.80;99.90;;;;;;4973405;28;20062;-74
2023/07/15 04:16:47;;;;;;;6.60;2.70;;;18.80;99.90;;;;;;4975061;28;20038;-75
2023/07/15 04:19:13;;;;;;;5.72;2.60;;;18.80;99.90;;;;;;4973729;28;20126;-75
2023/07/15 04:21:39;;;;;;;6.00;2.72;;;18.80;99.90;;;;;;4974974;28;20070;-73
2023/07/15 04:24:05;;;;;;;6.25;2.70;;;18.80;99.90;;;;;;4973456;28;20105;-73
2023/07/15 04:26:31;;;;;;;5.70;2.50;;;18.80;99.90;;;;;;4974882;28;20567;-74
2023/07/15 04:28:58;;;;;;;5.82;2.50;;;18.80;99.90;;;;;;4974618;28;20043;-73
2023/07/15 04:31:24;;;;;;;6.57;2.63;;;18.80;99.90;;;;;;4974596;28;20141;-74
2023/07/15 04:33:51;;;;;;;7.45;2.63;;;18.90;99.90;;;;;;4974467;28;20487;-75
2023/07/15 04:36:19;;;;;;;5.80;2.58;;;18.90;99.90;;;;;;4974857;28;20495;-74
2023/07/15 04:38:45;;;;;;;5.82;2.50;;;19.00;99.90;;;;;;4974661;28;20050;-75
2023/07/15 04:41:11;;;;;;;5.97;2.50;;;19.00;99.90;;;;;;4974757;28;20047;-75
2023/07/15 04:43:37;;;;;;;6.45;2.40;;;19.10;99.90;;;;;;4974754;28;20086;-74
2023/07/15 04:46:04;;;;;;;6.80;2.50;;;19.10;99.90;;;;;;4974595;28;20454;-75
2023/07/15 04:48:30;;;;;;;5.18;2.40;;;19.20;99.90;;;;;;4973141;28;20042;-74
2023/07/15 04:50:56;;;;;;;7.05;2.40;;;19.30;99.90;;;;;;4973236;28;20098;-73
2023/07/15 04:53:22;;;;;;;7.72;2.90;;;19.30;99.90;;;;;;4973096;28;20130;-74
2023/07/15 04:55:49;;;;;;;5.20;2.55;;;19.40;99.90;;;;;;4974584;28;20082;-73
2023/07/15 04:58:17;;;;;;;7.50;2.42;;;19.50;99.90;;;;;;4974305;28;20525;-73
2023/07/15 05:00:44;;;;;;;6.40;2.70;;;19.50;99.90;;;;;;4979802;28;20101;-73
2023/07/15 05:03:10;;;;;;;5.85;2.40;;;19.60;99.90;;;;;;4979496;28;20046;-74
2023/07/15 05:05:35;;;;;;;7.03;2.65;;;19.70;99.90;;;;;;4980896;28;20440;-73
2023/07/15 05:08:22;;;;;;;7.70;2.40;;;20.00;99.90;;;;;;4980860;28;20513;-74
2023/07/15 05:10:48;;;;;;;7.93;2.60;;;20.50;99.90;;;;;;4979582;28;20043;-74
2023/07/15 05:13:15;;;;;;;7.03;2.50;;;21.00;99.90;;;;;;4979372;28;20046;-74
2023/07/15 05:15:42;;;;;;;6.28;2.50;;;21.20;99.90;;;;;;4979139;28;20054;-74
2023/07/15 05:18:08;;;;;;;5.93;2.60;;;21.50;99.90;;;;;;4980837;28;20046;-74
2023/07/15 05:20:34;;;;;;;6.28;2.30;;;21.80;99.90;;;;;;4980740;28;20043;-74
2023/07/15 05:23:01;;;;;;;5.95;2.40;;;22.40;99.90;;;;;;4980439;28;20154;-73
2023/07/15 05:25:27;;;;;;;9.48;2.53;;;22.70;99.90;;;;;;4980028;28;20051;-74
2023/07/15 05:27:52;;;;;;;6.30;2.47;;;23.00;99.90;;;;;;4980735;28;20096;-73
2023/07/15 05:30:22;;;;;;;7.93;2.50;;;23.20;99.80;;;;;;4980176;28;20129;-75
2023/07/15 05:32:48;;;;;;;6.28;2.40;;;23.60;99.90;;;;;;4980703;28;20046;-75
2023/07/15 05:35:14;;;;;;;6.60;2.38;;;24.30;99.10;;;;;;4980653;28;20045;-75
2023/07/15 05:37:40;;;;;;;7.38;2.40;;;24.90;97.90;;;;;;4980349;28;20043;-75
2023/07/15 05:40:09;;;;;;;6.53;2.40;;;25.50;97.30;;;;;;4980598;28;20118;-75
2023/07/15 05:42:40;;;;;;;6.28;2.40;;;25.60;96.00;;;;;;4979198;28;20043;-75
2023/07/15 05:45:06;;;;;;;8.27;2.70;;;25.70;94.70;;;;;;4980141;28;20129;-75
2023/07/15 05:47:34;;;;;;;5.53;2.20;;;26.30;95.40;;;;;;4979444;28;20051;-75
2023/07/15 05:50:00;;;;;;;6.18;2.22;;;26.50;93.90;;;;;;4979320;28;20122;-75
2023/07/15 05:52:26;;;;;;;7.50;2.40;;;26.40;92.80;;;;;;4980572;28;20061;-74
2023/07/15 05:54:52;;;;;;;5.65;2.42;;;26.80;91.90;;;;;;4979194;28;20038;-74
2023/07/15 05:57:17;;;;;;;6.90;2.20;;;26.70;92.40;;;;;;4980136;28;20082;-74
2023/07/15 05:59:43;;;;;;;5.57;2.20;;;27.00;92.60;;;;;;4978824;28;20050;-74
2023/07/15 06:02:09;;;;;;;6.10;2.58;;;27.10;92.80;;;;;;4980384;28;20043;-74
2023/07/15 06:04:34;;;;;;;7.00;2.30;;;27.40;92.30;;;;;;4980330;28;20117;-75
2023/07/15 06:07:00;;;;;;;5.75;2.50;;;27.40;91.20;;;;;;4980366;28;20539;-74
2023/07/15 06:09:26;;;;;;;7.00;2.20;;;27.40;90.80;;;;;;4980059;28;20403;-75
2023/07/15 06:11:52;;;;;;;7.97;2.40;;;27.80;90.30;;;;;;4977200;28;20487;-75
2023/07/15 06:14:18;;;;;;;6.70;2.50;;;27.80;90.00;;;;;;4976711;28;20047;-74
2023/07/15 06:16:44;;;;;;;6.57;2.63;;;28.00;89.70;;;;;;4977199;28;20054;-74
2023/07/15 06:19:09;;;;;;;7.40;2.60;;;28.00;89.00;;;;;;4977262;28;20039;-75
2023/07/15 06:21:36;;;;;;;7.40;2.30;;;28.00;88.20;;;;;;4976783;28;20047;-74
2023/07/15 06:24:02;;;;;;;7.43;2.30;;;28.00;88.80;;;;;;4977113;28;20042;-74
2023/07/15 06:26:29;;;;;;;6.47;2.50;;;28.30;88.40;;;;;;4992020;28;20106;-73
2023/07/15 06:28:55;;;;;;;6.00;2.33;;;28.60;87.90;;;;;;4977034;28;20038;-74
2023/07/15 06:31:20;;;;;;;5.35;2.47;;;28.50;87.30;;;;;;4975444;28;20483;-74
2023/07/15 06:33:48;;;;;;;5.82;2.50;;;28.80;85.60;;;;;;4975608;28;20046;-75
2023/07/15 06:36:14;;;;;;;8.05;2.40;;;29.00;86.10;;;;;;4975698;28;20047;-74
2023/07/15 06:38:40;;;;;;;7.65;2.40;;;28.80;84.00;;;;;;4975668;28;20042;-74
2023/07/15 06:41:05;;;;;;;6.50;2.38;;;28.80;85.40;;;;;;4976878;28;20122;-74
2023/07/15 06:43:31;;;;;;;6.57;2.40;;;29.20;86.30;;;;;;4976433;28;20534;-74
2023/07/15 06:46:00;;;;;;;6.68;2.60;;;29.40;86.50;;;;;;4976751;28;20042;-74
2023/07/15 06:48:26;;;;;;;6.57;2.40;;;29.60;85.60;;;;;;4976733;28;20122;-74
2023/07/15 06:50:52;;;;;;;7.70;2.60;;;29.90;83.10;;;;;;4976361;28;20530;-75
2023/07/15 06:53:18;;;;;;;6.15;2.47;;;29.70;82.40;;;;;;4976612;28;20039;-74
2023/07/15 06:55:43;;;;;;;6.88;2.45;;;29.70;81.40;;;;;;4959380;28;20043;-74
2023/07/15 06:58:09;;;;;;;5.47;2.50;;;29.70;81.50;;;;;;4976537;28;20428;-74
2023/07/15 07:00:35;;;;;;;6.40;2.53;;;29.30;80.60;;;;;;4976488;28;20038;-75
2023/07/15 07:03:01;;;;;;;6.28;2.40;;;29.50;82.20;;;;;;4975201;28;20062;-75
2023/07/15 07:05:27;;;;;;;7.97;2.50;;;29.70;82.20;;;;;;4976477;28;20047;-75
2023/07/15 07:07:54;;;;;;;7.57;2.33;;;29.40;81.30;;;;;;4976270;28;20133;-75
2023/07/15 07:10:20;;;;;;;6.68;2.63;;;29.70;82.60;;;;;;4975255;28;20381;-75
2023/07/15 07:12:46;;;;;;;5.88;2.50;;;29.90;82.30;;;;;;4974871;28;20042;-74
2023/07/15 07:15:12;;;;;;;6.05;2.22;;;29.80;81.50;;;;;;4974614;28;20055;-74
2023/07/15 07:17:38;;;;;;;6.10;2.50;;;29.80;81.20;;;;;;4976144;28;20035;-74
2023/07/15 07:20:04;;;;;;;6.18;2.30;;;29.70;83.70;;;;;;4976078;28;20131;-75
2023/07/15 07:22:30;;;;;;;6.65;2.28;;;29.70;82.30;;;;;;4975731;28;20105;-75
2023/07/15 07:24:58;;;;;;;6.90;2.20;;;29.60;82.10;;;;;;4976662;28;20050;-74
2023/07/15 07:27:24;;;;;;;7.78;2.30;;;29.40;82.70;;;;;;4959243;28;20077;-76
2023/07/15 07:29:49;;;;;;;5.97;2.20;;;29.30;84.40;;;;;;4975382;28;20066;-76
2023/07/15 07:32:15;;;;;;;6.65;2.33;;;29.20;82.80;;;;;;4976067;28;20070;-75
2023/07/15 07:34:41;;;;;;;5.78;2.35;;;29.20;84.80;;;;;;4977545;28;20039;-76
2023/07/15 07:37:07;;;;;;;6.80;2.20;;;29.00;85.10;;;;;;4978532;28;20038;-75
2023/07/15 07:39:32;;;;;;;8.10;2.40;;;29.30;86.30;;;;;;4985117;28;20035;-75
2023/07/15 07:41:58;;;;;;;4.70;2.00;;;29.20;86.00;;;;;;5000412;28;20027;-74
2023/07/15 07:44:24;;;;;;;5.80;2.00;;;29.00;86.90;;;;;;5000310;28;20038;-74
2023/07/15 07:46:50;;;;;;;6.95;2.13;;;29.00;87.20;;;;;;4999775;28;20027;-75
2023/07/15 07:49:18;;;;;;;6.20;2.00;;;29.10;87.10;;;;;;4999475;28;20050;-73
2023/07/15 07:51:44;;;;;;;5.20;1.90;;;29.00;86.90;;;;;;4999911;28;20047;-74
2023/07/15 07:54:10;;;;;;;5.50;1.80;;;29.10;86.80;;;;;;4999813;28;20023;-74
2023/07/15 07:56:35;;;;;;;5.40;1.80;;;29.30;87.00;;;;;;4999307;28;20034;-74
2023/07/15 07:59:02;;;;;;;7.30;2.08;;;29.30;88.50;;;;;;4999099;28;20049;-74
2023/07/15 08:01:30;;;;;;;5.20;1.75;;;29.30;88.80;;;;;;4999565;28;20026;-73
2023/07/15 08:03:56;;;;;;;4.13;1.70;;;29.30;88.70;;;;;;4998792;28;20121;-73
2023/07/15 08:06:23;;;;;;;4.57;1.77;;;29.20;89.70;;;;;;4999463;28;20054;-73
2023/07/15 08:08:49;;;;;;;6.10;1.90;;;29.20;90.10;;;;;;4999364;28;20027;-73
2023/07/15 08:11:15;;;;;;;5.40;1.90;;;29.40;90.00;;;;;;4999098;28;20082;-74
2023/07/15 08:13:41;;;;;;;4.38;1.70;;;29.40;89.40;;;;;;4999068;28;20066;-72
2023/07/15 08:16:26;;;;;;;4.47;1.65;;;29.50;89.20;;;;;;4997563;28;20038;-72
2023/07/15 08:18:52;;;;;;;5.45;1.80;;;29.50;89.00;;;;;;4999237;28;20054;-73
2023/07/15 08:21:18;;;;;;;3.88;1.70;;;29.60;89.20;;;;;;4998597;28;20062;-72
2023/07/15 08:23:43;;;;;;;5.13;1.80;;;29.70;89.50;;;;;;4996085;28;20070;-73
2023/07/15 08:26:09;;;;;;;6.13;2.00;;;29.80;88.50;;;;;;4997350;28;20041;-74
2023/07/15 08:28:35;;;;;;;5.18;1.80;;;29.80;88.90;;;;;;4998666;28;20070;-73
2023/07/15 08:31:01;;;;;;;4.70;1.88;;;29.80;88.80;;;;;;4998008;28;20046;-70
2023/07/15 08:33:26;;;;;;;4.53;1.80;;;29.90;89.40;;;;;;4998376;28;20038;-71
2023/07/15 08:35:52;;;;;;;6.97;2.00;;;29.80;88.70;;;;;;4995465;28;20042;-73
2023/07/15 08:38:18;;;;;;;4.65;2.08;;;29.60;89.00;;;;;;4998120;28;20027;-72
2023/07/15 08:40:44;;;;;;;5.60;2.47;;;29.70;87.60;;;;;;4997427;28;20070;-72
2023/07/15 08:43:10;;;;;;;5.30;2.17;;;29.60;88.30;;;;;;4997994;28;20019;-74
2023/07/15 08:45:36;;;;;;;5.78;2.00;;;29.60;89.30;;;;;;4988175;28;20061;-75
2023/07/15 08:48:02;;;;;;;6.75;2.20;;;29.70;90.00;;;;;;4977436;28;20050;-73
2023/07/15 08:50:33;;;;;;;5.63;2.20;;;29.70;89.00;;;;;;4977313;28;20039;-74
2023/07/15 08:53:03;;;;;;;5.13;1.90;;;29.70;89.80;;;;;;4978095;28;20031;-74
2023/07/15 08:55:30;;;;;;;5.63;2.20;;;29.80;88.50;;;;;;4977327;28;20043;-75
2023/07/15 08:57:58;;;;;;;5.43;2.05;;;29.70;87.50;;;;;;4976390;28;20062;-74
2023/07/15 09:00:24;;;;;;;7.78;2.20;;;29.60;87.70;;;;;;4975862;28;20173;-74
2023/07/15 09:02:53;;;;;;;4.75;1.80;;;29.70;87.30;;;;;;4975609;28;20058;-74
2023/07/15 09:05:20;;;;;;;5.82;2.10;;;29.70;88.00;;;;;;4975099;28;20082;-75
2023/07/15 09:07:59;;;;;;;5.60;2.05;;;29.70;87.70;;;;;;4975384;28;20046;-74
2023/07/15 09:10:28;;;;;;;4.00;1.75;;;29.70;89.70;;;;;;4974859;28;20046;-76
2023/07/15 09:12:55;;;;;;;5.75;2.10;;;29.60;88.50;;;;;;4975011;28;20078;-75
2023/07/15 09:15:21;;;;;;;7.55;2.00;;;29.50;87.00;;;;;;4974382;28;20130;-73
2023/07/15 09:17:54;;;;;;;4.88;2.00;;;29.50;89.00;;;;;;4974409;28;20043;-75
2023/07/15 09:20:21;;;;;;;6.07;2.00;;;29.60;87.10;;;;;;4974422;28;20051;-75
2023/07/15 09:23:05;;;;;;;7.53;2.15;;;29.50;87.80;;;;;;4973099;28;20074;-74
2023/07/15 09:25:31;;;;;;;6.10;2.00;;;29.20;85.70;;;;;;4957075;28;20050;-74
2023/07/15 09:27:59;;;;;;;6.43;1.88;;;29.20;88.30;;;;;;4973027;28;20043;-74
2023/07/15 09:30:25;;;;;;;4.63;1.90;;;29.30;89.30;;;;;;4974001;28;20043;-75
2023/07/15 09:32:50;;;;;;;6.13;2.00;;;29.30;88.30;;;;;;4974410;28;20049;-74
2023/07/15 09:35:17;;;;;;;7.70;2.05;;;29.60;88.60;;;;;;4974115;28;20043;-74
2023/07/15 09:37:48;;;;;;;5.72;1.75;;;29.80;88.40;;;;;;4974314;28;20039;-75
2023/07/15 09:40:14;;;;;;;5.68;1.70;;;30.10;90.00;;;;;;4956837;28;20043;-74
2023/07/15 09:42:49;;;;;;;4.18;1.52;;;30.10;85.00;;;;;;4972980;28;20395;-75
2023/07/15 09:45:34;;;;;;;4.93;2.00;;;30.10;86.60;;;;;;4974086;28;20054;-75
2023/07/15 09:48:05;;;;;;;5.57;2.03;;;30.10;86.00;;;;;;4977809;28;20050;-75
2023/07/15 09:50:36;;;;;;;5.18;1.90;;;29.70;84.30;;;;;;4977486;28;20226;-74
2023/07/15 09:53:03;;;;;;;5.40;2.10;;;29.40;85.70;;;;;;4976461;28;20077;-74
2023/07/15 09:55:30;;;;;;;4.65;1.75;;;29.20;86.30;;;;;;4977767;28;20150;-75
2023/07/15 09:58:09;;;;;;;4.22;1.70;;;29.20;88.50;;;;;;4976092;28;20043;-74
2023/07/15 10:00:39;;;;;;;6.10;2.00;;;29.30;88.40;;;;;;4977319;28;20046;-74
2023/07/15 10:03:11;;;;;;;4.40;1.70;;;29.00;86.80;;;;;;4977242;28;20046;-74
2023/07/15 10:05:38;;;;;;;4.53;1.70;;;29.10;87.60;;;;;;4977466;28;20068;-74
2023/07/15 10:08:06;;;;;;;5.82;1.73;;;28.90;88.80;;;;;;4977436;28;20054;-75
2023/07/15 10:10:32;;;;;;;5.30;1.88;;;28.80;87.70;;;;;;4959812;28;20070;-74
2023/07/15 10:12:58;;;;;;;4.68;1.80;;;28.70;87.70;;;;;;4977097;28;20043;-74
2023/07/15 10:15:24;;;;;;;4.88;1.75;;;28.50;90.20;;;;;;4976884;28;20149;-74
2023/07/15 10:17:50;;;;;;;6.18;1.63;;;28.40;89.30;;;;;;4976976;28;20034;-74
2023/07/15 10:20:17;;;;;;;4.60;1.75;;;28.50;89.60;;;;;;4976966;28;20054;-74
2023/07/15 10:22:44;;;;;;;3.47;1.52;;;28.70;90.90;;;;;;4975829;28;20047;-74
2023/07/15 10:25:11;;;;;;;5.53;1.63;;;28.80;90.20;;;;;;4977214;28;20384;-74
2023/07/15 10:27:38;;;;;;;5.50;1.70;;;28.80;90.10;;;;;;4976871;28;20126;-74
2023/07/15 10:30:33;;;;;;;5.80;1.65;;;28.90;89.60;;;;;;4976786;28;20043;-73
2023/07/15 10:32:59;;;;;;;8.57;2.42;;;28.80;89.90;;;;;;4964007;28;20051;-74
2023/07/15 10:35:30;;;;;;;10.05;2.83;;;28.80;90.10;;;;;;4976717;28;20042;-75
2023/07/15 10:38:02;;;;;;;10.45;3.00;;;28.80;90.50;;;;;;4959332;28;20044;-74
2023/07/15 10:40:46;;;;;;;11.30;3.55;;;28.70;89.30;;;;;;4976561;28;20042;-75
2023/07/15 10:43:12;;;;;;;7.13;2.20;;;28.40;90.40;;;;;;4976710;28;20125;-75
2023/07/15 10:45:54;;;;;;;12.98;2.10;;;28.10;90.50;;;;;;4976786;28;20138;-76
2023/07/15 10:48:21;;;;;;;7.13;1.70;;;28.00;90.70;;;;;;4976375;28;20215;-75
2023/07/15 10:50:50;;;;;;;5.13;1.90;;;27.70;90.80;;;;;;4959245;28;20039;-75
2023/07/15 10:53:25;;;;;;;4.20;1.70;;;27.60;91.40;;;;;;4976347;28;20043;-73
2023/07/15 10:56:05;;;;;;;4.05;1.88;;;27.30;91.30;;;;;;4976129;28;20082;-75
2023/07/15 10:58:34;;;;;;;6.32;1.80;;;27.30;91.50;;;;;;4976033;28;20039;-74
2023/07/15 11:01:11;;;;;;;6.80;1.80;;;27.40;91.30;;;;;;4975339;28;20058;-74
2023/07/15 11:03:44;;;;;;;5.38;1.60;;;27.50;92.00;;;;;;4975201;28;20055;-74
2023/07/15 11:06:11;;;;;;;4.97;1.67;;;27.90;92.30;;;;;;4976306;28;20046;-75
2023/07/15 11:08:38;;;;;;;6.72;1.92;;;28.20;91.50;;;;;;4976257;28;20039;-74
2023/07/15 11:11:06;;;;;;;5.80;1.80;;;28.50;90.70;;;;;;4974758;28;20050;-74
2023/07/15 11:13:36;;;;;;;5.38;1.80;;;28.50;90.20;;;;;;4975015;28;20045;-75
2023/07/15 11:16:02;;;;;;;4.75;1.80;;;28.40;90.10;;;;;;4975648;28;20059;-75
2023/07/15 11:18:28;;;;;;;9.48;2.05;;;28.10;90.10;;;;;;4974658;28;20042;-73
2023/07/15 11:20:58;;;;;;;9.52;2.03;;;28.00;90.20;;;;;;4974875;28;20142;-74
2023/07/15 11:23:24;;;;;;;5.38;1.75;;;27.70;90.60;;;;;;4975974;28;20431;-75
2023/07/15 11:25:50;;;;;;;6.90;1.70;;;27.50;91.10;;;;;;4942831;28;20522;-75
2023/07/15 11:28:19;;;;;;;6.10;1.85;;;27.30;91.30;;;;;;4975726;28;20039;-74
2023/07/15 11:30:48;;;;;;;6.78;1.90;;;27.10;91.80;;;;;;4975599;28;20039;-74
2023/07/15 11:33:15;;;;;;;4.03;1.60;;;26.80;91.60;;;;;;4975838;28;20491;-74
2023/07/15 11:35:43;;;;;;;5.07;1.85;;;26.60;91.80;;;;;;4974344;28;20043;-75
2023/07/15 11:38:14;;;;;;;6.22;1.70;;;26.50;92.30;;;;;;4975809;28;20042;-74
2023/07/15 11:40:54;;;;;;;6.28;2.20;;;26.30;92.70;;;;;;4975471;28;20098;-73
2023/07/15 11:43:22;;;;;;;6.13;1.85;;;26.00;92.40;;;;;;4975682;28;20521;-74
2023/07/15 11:45:48;;;;;;;5.63;1.90;;;25.80;92.50;;;;;;4975591;28;20039;-73
2023/07/15 11:48:32;;;;;;;5.80;1.92;;;25.70;92.80;;;;;;4973995;28;20051;-73
2023/07/15 11:51:06;;;;;;;4.22;1.90;;;25.70;93.80;;;;;;4975151;28;20090;-73
2023/07/15 11:53:41;;;;;;;6.28;2.15;;;25.60;95.00;;;;;;4975186;28;20129;-72
2023/07/15 11:56:07;;;;;;;5.32;2.13;;;25.60;94.50;;;;;;4974114;28;20039;-73
2023/07/15 11:58:49;;;;;;;6.97;2.10;;;25.40;93.90;;;;;;4973739;28;20105;-73
2023/07/15 12:01:23;;;;;;;6.13;2.45;;;25.20;94.70;;;;;;4975133;28;20507;-73
2023/07/15 12:03:49;;;;;;;7.70;2.20;;;25.00;94.60;;;;;;4975373;28;20065;-73
2023/07/15 12:06:23;;;;;;;6.05;2.25;;;25.00;95.00;;;;;;4973787;28;20125;-73
2023/07/15 12:09:10;;;;;;;6.95;2.25;;;24.90;95.60;;;;;;4975188;28;20078;-72
2023/07/15 12:11:36;;;;;;;6.22;2.42;;;25.00;96.70;;;;;;4974988;28;20045;-73
2023/07/15 12:14:04;;;;;;;5.40;2.30;;;25.00;96.50;;;;;;4974886;28;20039;-73
2023/07/15 12:16:32;;;;;;;4.72;1.92;;;25.00;97.40;;;;;;4974559;28;20065;-74
2023/07/15 12:19:00;;;;;;;6.28;2.20;;;25.00;97.60;;;;;;4973593;28;20039;-73
2023/07/15 12:21:26;;;;;;;6.18;2.17;;;25.20;97.10;;;;;;4975062;28;20042;-72
2023/07/15 12:23:52;;;;;;;5.03;1.90;;;25.40;96.30;;;;;;4975045;28;20042;-73
2023/07/15 12:26:19;;;;;;;5.72;1.90;;;25.50;95.50;;;;;;4973646;28;20130;-72
2023/07/15 12:28:45;;;;;;;4.03;1.67;;;25.50;94.90;;;;;;4973436;28;20109;-73
2023/07/15 12:31:13;;;;;;;5.00;2.10;;;25.50;95.20;;;;;;4973526;28;20051;-74
2023/07/15 12:33:39;;;;;;;5.13;2.00;;;25.60;95.20;;;;;;4974555;28;20134;-73
2023/07/15 12:36:05;;;;;;;4.85;1.70;;;25.60;95.20;;;;;;4973653;28;20047;-73
2023/07/15 12:38:31;;;;;;;4.75;1.75;;;25.70;95.40;;;;;;4974768;28;20097;-73
2023/07/15 12:40:57;;;;;;;5.10;1.92;;;25.60;95.10;;;;;;4974772;28;20527;-73
2023/07/15 12:43:23;;;;;;;6.47;1.90;;;25.50;94.80;;;;;;4974439;28;20054;-73
2023/07/15 12:45:53;;;;;;;5.22;1.70;;;25.40;94.50;;;;;;4973212;28;20101;-73
2023/07/15 12:48:18;;;;;;;3.92;1.65;;;25.20;94.80;;;;;;4974488;28;20097;-73